Strona główna
METAR-TAF:

METAR-TAF

Lotnisko :

Muir Army Airfield

Fort Indiantown Gap, Pensylwania, Stany Zjednoczone

Szerokość geograficzna: 40-26N, Długość geograficzna: 076-34W, wysokość: 149 m

Aktualna obserwacja pogody

Raport powstał 1 godzina i 4 minut temu, godzina 18:56 UTC
Wiatr 5 kt od zachodnio-południowy zachód
Temperatura 1°C
Wilgotność 44%
Ciśnienie 1018 hPa
Widzialność: 16.1 km
Przerywane chmury na wysokości 3900 ft
Przerywane chmury na wysokości 15000 ft
Przerywane chmury na wysokości 21000 ft

METAR: KMUI 251856Z AUTO 24005KT 10SM BKN039 BKN150 BKN210 01/M10 A3007 RMK AO2 SLP191 T00131105

czas: 15:00 (20:00 UTC)


TAF: brakujący

Obserwacja i prognoza pogody dla ponad 4000 lotnisk (raport METAR i TAF).

Dostępne stacje oznaczono żółtymi i czerwonymi punktami na mapie.

Najedź kursorem aby zobaczyć nazwę stacji.

Kliknij aby zobaczyć obserwacje i prognozy pogody.

Aby zmienić mapę: kliknij na zielony przycisk z czarnym krzyżykiem, aby powiększyć; na zielony przycisk z myślnikiem, aby pomniejszyć; na zielone strzałki, aby przejść do map sąsiednich.


METAR-TAF: